createdAt,value
2022-08-03T00:01:46.404Z,25.19
2022-08-03T00:08:48.031Z,25.11
2022-08-03T00:15:49.639Z,25.11
2022-08-03T00:22:51.449Z,25.06
2022-08-03T00:30:00.017Z,25.00
2022-08-03T00:37:02.058Z,24.93
2022-08-03T00:44:03.874Z,24.90
2022-08-03T00:51:05.545Z,24.83
2022-08-03T00:58:07.907Z,24.88
2022-08-03T01:05:09.860Z,24.84
2022-08-03T01:12:17.769Z,24.82
2022-08-03T01:19:32.331Z,24.77
2022-08-03T01:27:03.349Z,24.77
2022-08-03T01:34:08.377Z,24.70
2022-08-03T01:41:21.369Z,24.56
2022-08-03T01:48:22.993Z,24.51
2022-08-03T01:55:25.362Z,24.51
2022-08-03T02:02:32.940Z,24.46
2022-08-03T02:09:39.102Z,24.47
2022-08-03T02:16:43.293Z,24.47
2022-08-03T02:23:44.933Z,24.41
2022-08-03T02:30:53.705Z,24.45
2022-08-03T02:37:58.774Z,24.44
2022-08-03T02:45:02.415Z,24.44
2022-08-03T02:52:04.406Z,24.40
2022-08-03T02:59:06.025Z,24.33
2022-08-03T03:06:07.930Z,24.32
2022-08-03T03:13:09.527Z,24.32
2022-08-03T03:20:14.648Z,24.28
2022-08-03T03:27:16.645Z,24.29
2022-08-03T03:34:18.663Z,24.24
2022-08-03T03:41:20.776Z,24.20
2022-08-03T03:48:22.469Z,24.15
2022-08-03T03:55:24.087Z,24.22
2022-08-03T04:02:28.192Z,24.17
2022-08-03T04:09:48.838Z,24.11
2022-08-03T04:16:56.223Z,24.13
2022-08-03T04:24:00.157Z,24.16
2022-08-03T04:31:01.828Z,24.08
2022-08-03T04:38:05.071Z,24.14
2022-08-03T04:45:07.132Z,24.15
2022-08-03T04:52:09.813Z,24.13
2022-08-03T04:59:11.693Z,24.20
2022-08-03T05:06:13.289Z,24.24
2022-08-03T05:13:17.874Z,24.22
2022-08-03T05:20:19.572Z,24.29
2022-08-03T05:27:21.210Z,24.35
2022-08-03T05:34:22.873Z,24.45
2022-08-03T05:41:37.137Z,24.51
2022-08-03T05:48:39.261Z,24.58
2022-08-03T05:55:40.898Z,24.67
2022-08-03T06:02:42.548Z,24.79
2022-08-03T06:10:36.157Z,24.92
2022-08-03T06:17:08.176Z,25.07
2022-08-03T06:24:09.794Z,25.13
2022-08-03T06:31:11.378Z,25.21
2022-08-03T06:38:14.484Z,25.37
2022-08-03T06:45:16.148Z,25.65
2022-08-03T06:52:37.781Z,25.80
2022-08-03T07:00:07.551Z,26.02
2022-08-03T07:07:01.235Z,26.16
2022-08-03T07:14:02.975Z,26.36
2022-08-03T07:21:04.591Z,26.49
2022-08-03T07:28:06.241Z,26.69
2022-08-03T07:35:08.799Z,26.98
2022-08-03T07:42:27.326Z,27.28
2022-08-03T07:49:29.008Z,27.57
2022-08-03T07:56:30.614Z,28.08
2022-08-03T08:03:41.106Z,28.81
2022-08-03T08:10:58.273Z,29.43
2022-08-03T08:18:01.344Z,30.26
2022-08-03T08:25:04.193Z,31.30
2022-08-03T08:32:05.897Z,31.72
2022-08-03T08:39:07.543Z,31.97
2022-08-03T08:46:12.526Z,32.58
2022-08-03T08:53:18.364Z,32.29
2022-08-03T09:00:22.321Z,32.48
2022-08-03T09:07:24.021Z,32.99
2022-08-03T09:14:36.573Z,33.41
2022-08-03T09:21:41.182Z,34.17
2022-08-03T09:28:59.964Z,34.45
2022-08-03T09:36:04.660Z,34.43
2022-08-03T09:43:10.337Z,35.14
2022-08-03T09:50:12.836Z,35.48
2022-08-03T09:57:24.479Z,35.56
2022-08-03T10:04:26.191Z,36.45
2022-08-03T10:11:31.397Z,36.44
2022-08-03T10:18:33.066Z,36.39
2022-08-03T10:25:34.748Z,36.92
2022-08-03T10:32:49.274Z,36.66
2022-08-03T10:39:53.838Z,36.97
2022-08-03T10:46:55.421Z,37.44
2022-08-03T10:53:57.031Z,37.69
2022-08-03T11:01:00.484Z,37.96
2022-08-03T11:08:22.099Z,38.14
2022-08-03T11:15:32.569Z,38.32
2022-08-03T11:22:54.368Z,38.54
2022-08-03T11:29:56.843Z,38.67
2022-08-03T11:37:26.316Z,38.34
2022-08-03T11:44:40.566Z,38.76
2022-08-03T11:51:42.160Z,39.04
2022-08-03T11:59:17.208Z,39.38
2022-08-03T12:06:11.239Z,39.12
2022-08-03T12:14:30.089Z,39.43
2022-08-03T12:20:35.181Z,39.52
2022-08-03T12:27:37.076Z,39.83
2022-08-03T12:34:47.454Z,39.92
2022-08-03T12:41:52.988Z,39.66
2022-08-03T12:49:00.447Z,39.63
2022-08-03T12:56:06.189Z,39.26
2022-08-03T13:10:31.256Z,40.20
2022-08-03T13:17:32.874Z,40.82
2022-08-03T13:24:34.500Z,40.83
2022-08-03T13:31:36.108Z,40.93
2022-08-03T13:38:52.334Z,40.98
2022-08-03T13:45:57.886Z,41.30
2022-08-03T13:52:59.676Z,41.81
2022-08-03T14:00:02.360Z,41.62
2022-08-03T14:07:05.801Z,40.96
2022-08-03T14:14:07.462Z,41.22
2022-08-03T14:21:09.129Z,41.24
2022-08-03T14:28:10.807Z,41.02
2022-08-03T14:35:12.411Z,41.31
2022-08-03T14:42:14.166Z,41.05
2022-08-03T14:50:37.475Z,41.18
2022-08-03T14:56:37.423Z,41.00
2022-08-03T15:03:39.062Z,40.11
2022-08-03T15:10:44.383Z,39.94
2022-08-03T15:18:00.347Z,40.43
2022-08-03T15:25:03.977Z,40.69
2022-08-03T15:32:25.592Z,40.80
2022-08-03T15:39:28.060Z,40.18
2022-08-03T15:46:30.195Z,40.28
2022-08-03T15:53:32.225Z,40.85
2022-08-03T16:00:34.063Z,40.85
2022-08-03T16:08:02.978Z,40.68
2022-08-03T16:15:06.435Z,40.66
2022-08-03T16:22:08.478Z,40.19
2022-08-03T16:29:22.481Z,39.86
2022-08-03T16:36:25.370Z,39.24
2022-08-03T16:43:36.583Z,38.36
2022-08-03T16:50:38.204Z,38.07
2022-08-03T16:57:58.555Z,38.09
2022-08-03T17:05:01.468Z,38.15
2022-08-03T17:12:04.151Z,37.92
2022-08-03T17:19:07.140Z,37.68
2022-08-03T17:26:21.055Z,37.16
2022-08-03T17:33:23.411Z,36.90
2022-08-03T17:40:25.147Z,36.70
2022-08-03T17:47:29.280Z,36.62
2022-08-03T17:55:57.535Z,36.35
2022-08-03T18:02:55.496Z,36.07
2022-08-03T18:10:06.752Z,35.85
2022-08-03T18:17:15.693Z,35.62
2022-08-03T18:24:19.271Z,35.41
2022-08-03T18:38:43.567Z,34.85
2022-08-03T18:45:57.462Z,34.59
2022-08-03T18:53:05.447Z,34.36
2022-08-03T19:00:24.360Z,34.10
2022-08-03T19:07:36.838Z,33.86
2022-08-03T19:14:52.288Z,33.61
2022-08-03T19:21:55.269Z,33.40
2022-08-03T19:28:57.033Z,33.18
2022-08-03T19:35:58.790Z,32.92
2022-08-03T19:43:07.336Z,32.72
2022-08-03T19:50:14.263Z,32.53
2022-08-03T19:57:17.533Z,32.32
2022-08-03T20:04:20.567Z,32.17
2022-08-03T20:11:28.794Z,32.00
2022-08-03T20:18:33.620Z,31.83
2022-08-03T20:25:55.773Z,31.58
2022-08-03T20:33:00.387Z,31.40
2022-08-03T20:40:02.809Z,31.23
2022-08-03T20:47:06.127Z,31.06
2022-08-03T20:54:28.736Z,30.87
2022-08-03T21:01:36.136Z,30.72
2022-08-03T21:08:38.788Z,30.60
2022-08-03T21:12:58.265Z,35.17
2022-08-03T21:16:02.935Z,30.43
2022-08-03T21:23:40.488Z,30.28
2022-08-03T21:30:35.434Z,30.13
2022-08-03T21:37:37.935Z,30.01
2022-08-03T21:44:39.646Z,29.90
2022-08-03T21:51:41.452Z,29.78
2022-08-03T21:58:54.509Z,29.70
2022-08-03T22:06:04.689Z,29.62
2022-08-03T22:13:06.763Z,29.53
2022-08-03T22:20:10.267Z,29.47
2022-08-03T22:27:30.499Z,29.44
2022-08-03T22:34:32.190Z,29.33
2022-08-03T22:41:33.820Z,29.24
2022-08-03T22:48:37.179Z,29.17
2022-08-03T22:55:43.125Z,29.09
2022-08-03T23:02:47.574Z,29.05
2022-08-03T23:09:49.304Z,28.97
2022-08-03T23:16:51.068Z,28.89
2022-08-03T23:23:52.665Z,28.84
2022-08-03T23:30:54.427Z,28.78
2022-08-03T23:38:21.431Z,28.66
2022-08-03T23:45:18.763Z,28.55
2022-08-03T23:52:33.467Z,28.53
2022-08-03T23:59:41.151Z,28.42
